createdAt,value
2022-08-01T00:01:42.356Z,100240.90
2022-08-01T00:04:11.155Z,100235.73
2022-08-01T00:06:40.067Z,100231.55
2022-08-01T00:09:08.986Z,100232.04
2022-08-01T00:11:37.904Z,100234.09
2022-08-01T00:14:07.302Z,100228.42
2022-08-01T00:16:37.641Z,100230.45
2022-08-01T00:19:06.498Z,100230.20
2022-08-01T00:21:35.258Z,100231.25
2022-08-01T00:24:04.200Z,100229.02
2022-08-01T00:26:33.059Z,100226.04
2022-08-01T00:29:02.843Z,100227.19
2022-08-01T00:31:40.583Z,100223.39
2022-08-01T00:34:09.484Z,100221.19
2022-08-01T00:36:38.260Z,100221.05
2022-08-01T00:39:07.059Z,100220.52
2022-08-01T00:41:36.483Z,100221.55
2022-08-01T00:44:08.272Z,100223.55
2022-08-01T00:46:37.127Z,100222.38
2022-08-01T00:49:06.404Z,100225.13
2022-08-01T00:51:40.356Z,100223.05
2022-08-01T00:54:09.499Z,100226.52
2022-08-01T00:56:42.457Z,100229.04
2022-08-01T00:59:14.005Z,100226.77
2022-08-01T01:01:46.473Z,100231.05
2022-08-01T01:04:16.807Z,100226.55
2022-08-01T01:07:23.379Z,100229.39
2022-08-01T01:10:05.953Z,100227.14
2022-08-01T01:12:52.937Z,100221.44
2022-08-01T01:15:42.749Z,100221.69
2022-08-01T01:18:21.634Z,100217.30
2022-08-01T01:21:05.134Z,100213.65
2022-08-01T01:24:32.547Z,100212.99
2022-08-01T01:27:09.973Z,100214.56
2022-08-01T01:29:59.278Z,100212.26
2022-08-01T01:32:49.189Z,100208.83
2022-08-01T01:35:35.149Z,100206.77
2022-08-01T01:38:16.157Z,100204.17
2022-08-01T01:40:46.643Z,100198.39
2022-08-01T01:43:17.144Z,100197.20
2022-08-01T01:45:48.480Z,100195.35
2022-08-01T01:48:23.373Z,100191.56
2022-08-01T01:50:53.884Z,100193.41
2022-08-01T01:53:24.452Z,100191.87
2022-08-01T01:55:56.875Z,100190.94
2022-08-01T01:58:28.564Z,100190.59
2022-08-01T02:01:02.839Z,100194.10
2022-08-01T02:03:33.310Z,100191.15
2022-08-01T02:06:03.031Z,100194.18
2022-08-01T02:08:34.062Z,100194.90
2022-08-01T02:11:19.834Z,100194.73
2022-08-01T02:14:02.045Z,100193.34
2022-08-01T02:16:37.911Z,100191.52
2022-08-01T02:19:07.035Z,100187.13
2022-08-01T02:21:52.927Z,100184.81
2022-08-01T02:25:03.746Z,100186.20
2022-08-01T02:27:45.007Z,100187.06
2022-08-01T02:30:15.636Z,100187.21
2022-08-01T02:32:51.106Z,100188.23
2022-08-01T02:35:34.815Z,100191.85
2022-08-01T02:38:27.863Z,100191.80
2022-08-01T02:41:01.104Z,100191.04
2022-08-01T02:43:33.903Z,100189.55
2022-08-01T02:46:05.825Z,100188.83
2022-08-01T02:48:38.047Z,100187.98
2022-08-01T02:51:09.424Z,100189.34
2022-08-01T02:53:44.586Z,100191.46
2022-08-01T02:56:16.423Z,100190.23
2022-08-01T02:58:47.050Z,100194.02
2022-08-01T03:01:19.414Z,100195.80
2022-08-01T03:03:49.317Z,100194.42
2022-08-01T03:06:19.058Z,100194.02
2022-08-01T03:08:49.797Z,100195.60
2022-08-01T03:11:20.138Z,100193.89
2022-08-01T03:13:51.351Z,100192.46
2022-08-01T03:16:22.774Z,100191.27
2022-08-01T03:18:57.916Z,100184.11
2022-08-01T03:21:28.916Z,100178.86
2022-08-01T03:24:00.785Z,100177.16
2022-08-01T03:26:33.234Z,100182.16
2022-08-01T03:29:15.427Z,100184.03
2022-08-01T03:31:47.313Z,100186.25
2022-08-01T03:34:17.819Z,100190.16
2022-08-01T03:36:56.932Z,100186.98
2022-08-01T03:39:33.326Z,100178.71
2022-08-01T03:42:13.979Z,100177.98
2022-08-01T03:44:53.853Z,100177.21
2022-08-01T03:47:30.276Z,100177.03
2022-08-01T03:50:01.746Z,100173.92
2022-08-01T03:52:33.513Z,100175.19
2022-08-01T03:55:08.212Z,100176.80
2022-08-01T03:57:37.652Z,100177.92
2022-08-01T04:00:09.830Z,100182.01
2022-08-01T04:02:43.213Z,100186.67
2022-08-01T04:05:12.316Z,100188.88
2022-08-01T04:07:44.085Z,100189.14
2022-08-01T04:10:12.704Z,100188.66
2022-08-01T04:12:41.575Z,100192.15
2022-08-01T04:15:10.681Z,100191.60
2022-08-01T04:17:39.410Z,100189.11
2022-08-01T04:20:09.106Z,100189.10
2022-08-01T04:22:37.996Z,100192.17
2022-08-01T04:25:36.773Z,100193.41
2022-08-01T04:28:08.671Z,100197.31
2022-08-01T04:30:40.570Z,100194.05
2022-08-01T04:33:10.658Z,100190.92
2022-08-01T04:36:02.462Z,100194.30
2022-08-01T04:38:34.575Z,100192.23
2022-08-01T04:41:09.344Z,100187.95
2022-08-01T04:43:39.602Z,100182.58
2022-08-01T04:46:09.389Z,100180.80
2022-08-01T04:48:40.852Z,100185.81
2022-08-01T04:51:17.709Z,100184.45
2022-08-01T04:53:49.679Z,100185.67
2022-08-01T04:56:21.949Z,100187.08
2022-08-01T04:59:13.850Z,100186.04
2022-08-01T05:01:51.824Z,100187.92
2022-08-01T05:04:20.650Z,100188.64
2022-08-01T05:06:50.907Z,100193.70
2022-08-01T05:09:19.715Z,100192.48
2022-08-01T05:11:48.429Z,100194.34
2022-08-01T05:14:17.191Z,100190.39
2022-08-01T05:16:46.840Z,100189.80
2022-08-01T05:19:15.706Z,100191.96
2022-08-01T05:21:44.651Z,100189.98
2022-08-01T05:24:14.080Z,100189.48
2022-08-01T05:26:43.041Z,100183.23
2022-08-01T05:29:11.944Z,100183.59
2022-08-01T05:31:40.748Z,100184.59
2022-08-01T05:34:15.269Z,100181.01
2022-08-01T05:36:44.746Z,100180.60
2022-08-01T05:39:15.294Z,100180.90
2022-08-01T05:41:44.247Z,100176.52
2022-08-01T05:44:13.133Z,100173.38
2022-08-01T05:46:41.910Z,100175.60
2022-08-01T05:49:10.754Z,100178.85
2022-08-01T05:51:39.701Z,100178.13
2022-08-01T05:54:08.556Z,100179.44
2022-08-01T05:56:37.562Z,100180.35
2022-08-01T05:59:06.999Z,100182.61
2022-08-01T06:01:35.854Z,100179.05
2022-08-01T06:04:05.133Z,100177.98
2022-08-01T06:06:33.951Z,100177.66
2022-08-01T06:09:02.739Z,100179.67
2022-08-01T06:11:31.573Z,100180.33
2022-08-01T06:14:00.331Z,100184.33
2022-08-01T06:16:29.090Z,100184.95
2022-08-01T06:18:57.918Z,100184.05
2022-08-01T06:21:26.889Z,100182.59
2022-08-01T06:23:55.706Z,100185.02
2022-08-01T06:26:25.451Z,100185.67
2022-08-01T06:28:54.228Z,100186.16
2022-08-01T06:31:23.140Z,100183.25
2022-08-01T06:33:51.932Z,100187.25
2022-08-01T06:36:21.166Z,100186.91
2022-08-01T06:38:50.196Z,100194.52
2022-08-01T06:41:19.016Z,100195.13
2022-08-01T06:43:47.814Z,100195.39
2022-08-01T06:46:16.983Z,100195.39
2022-08-01T06:48:45.864Z,100192.46
2022-08-01T06:51:17.924Z,100190.84
2022-08-01T06:53:46.786Z,100186.83
2022-08-01T06:56:15.576Z,100181.17
2022-08-01T06:58:44.584Z,100177.94
2022-08-01T07:01:13.987Z,100180.17
2022-08-01T07:03:53.077Z,100180.23
2022-08-01T07:06:25.551Z,100181.52
2022-08-01T07:08:54.405Z,100185.98
2022-08-01T07:11:25.176Z,100181.77
2022-08-01T07:13:54.033Z,100175.18
2022-08-01T07:16:23.214Z,100178.27
2022-08-01T07:18:52.498Z,100176.03
2022-08-01T07:21:39.029Z,100177.16
2022-08-01T07:24:14.546Z,100179.35
2022-08-01T07:26:52.395Z,100176.01
2022-08-01T07:29:26.680Z,100178.08
2022-08-01T07:31:58.208Z,100181.25
2022-08-01T07:34:27.065Z,100183.28
2022-08-01T07:36:55.971Z,100181.09
2022-08-01T07:39:24.743Z,100186.10
2022-08-01T07:42:07.167Z,100186.17
2022-08-01T07:44:38.082Z,100180.24
2022-08-01T07:47:07.326Z,100184.83
2022-08-01T07:49:40.386Z,100186.23
2022-08-01T07:52:10.346Z,100185.28
2022-08-01T07:54:39.296Z,100190.16
2022-08-01T07:57:08.356Z,100190.37
2022-08-01T07:59:37.226Z,100192.86
2022-08-01T08:02:06.379Z,100189.15
2022-08-01T08:04:35.491Z,100186.97
2022-08-01T08:07:04.588Z,100188.88
2022-08-01T08:09:37.294Z,100196.48
2022-08-01T08:12:07.870Z,100199.66
2022-08-01T08:14:37.742Z,100200.52
2022-08-01T08:17:07.943Z,100194.54
2022-08-01T08:19:39.273Z,100191.84
2022-08-01T08:22:09.258Z,100194.86
2022-08-01T08:24:45.570Z,100197.52
2022-08-01T08:27:16.313Z,100197.23
2022-08-01T08:29:45.317Z,100193.23
2022-08-01T08:32:14.256Z,100193.17
2022-08-01T08:34:43.167Z,100196.42
2022-08-01T08:37:14.991Z,100198.40
2022-08-01T08:39:45.233Z,100195.90
2022-08-01T08:42:14.253Z,100192.22
2022-08-01T08:44:44.347Z,100188.09
2022-08-01T08:47:19.906Z,100189.20
2022-08-01T08:49:58.240Z,100194.77
2022-08-01T08:52:27.911Z,100200.95
2022-08-01T08:54:57.587Z,100204.64
2022-08-01T08:57:26.384Z,100207.50
2022-08-01T08:59:56.373Z,100215.63
2022-08-01T09:02:25.112Z,100214.79
2022-08-01T09:04:54.186Z,100220.16
2022-08-01T09:07:23.939Z,100223.69
2022-08-01T09:09:53.214Z,100222.30
2022-08-01T09:12:22.611Z,100224.14
2022-08-01T09:14:54.603Z,100225.00
2022-08-01T09:17:24.508Z,100226.07
2022-08-01T09:19:57.825Z,100228.09
2022-08-01T09:22:34.709Z,100229.02
2022-08-01T09:25:07.383Z,100227.56
2022-08-01T09:27:44.236Z,100230.77
2022-08-01T09:30:23.955Z,100231.14
2022-08-01T09:33:06.154Z,100227.50
2022-08-01T09:35:45.440Z,100226.95
2022-08-01T09:38:23.869Z,100227.36
2022-08-01T09:41:02.104Z,100224.14
2022-08-01T09:43:32.773Z,100222.73
2022-08-01T09:46:14.029Z,100222.49
2022-08-01T09:49:07.226Z,100223.20
2022-08-01T09:51:59.996Z,100226.59
2022-08-01T09:54:34.940Z,100224.86
2022-08-01T09:57:19.724Z,100223.61
2022-08-01T09:59:59.955Z,100219.67
2022-08-01T10:02:36.526Z,100221.05
2022-08-01T10:05:10.456Z,100222.43
2022-08-01T10:08:00.567Z,100222.70
2022-08-01T10:10:31.622Z,100221.73
2022-08-01T10:13:00.597Z,100220.79
2022-08-01T10:15:36.965Z,100217.40
2022-08-01T10:18:25.251Z,100219.30
2022-08-01T10:20:56.719Z,100218.02
2022-08-01T10:23:39.848Z,100214.64
2022-08-01T10:26:11.768Z,100214.14
2022-08-01T10:28:45.788Z,100215.16
2022-08-01T10:31:15.439Z,100213.09
2022-08-01T10:33:51.750Z,100209.60
2022-08-01T10:36:25.230Z,100209.33
2022-08-01T10:38:56.835Z,100206.46
2022-08-01T10:41:27.481Z,100205.13
2022-08-01T10:43:57.979Z,100207.88
2022-08-01T10:46:27.117Z,100205.55
2022-08-01T10:49:18.022Z,100201.44
2022-08-01T10:51:51.317Z,100200.52
2022-08-01T10:54:25.872Z,100201.13
2022-08-01T10:56:56.830Z,100195.47
2022-08-01T10:59:51.167Z,100197.39
2022-08-01T11:02:34.218Z,100196.33
2022-08-01T11:10:15.162Z,100196.59
2022-08-01T11:13:25.670Z,100195.71
2022-08-01T11:19:21.438Z,100192.57
2022-08-01T11:22:01.172Z,100192.60
2022-08-01T11:25:20.083Z,100199.67
2022-08-01T11:28:32.070Z,100195.54
2022-08-01T11:31:44.322Z,100196.06
2022-08-01T11:35:18.478Z,100196.15
2022-08-01T11:38:44.031Z,100193.14
2022-08-01T11:41:39.455Z,100193.30
2022-08-01T11:44:30.472Z,100193.29
2022-08-01T11:47:13.339Z,100195.96
2022-08-01T11:49:49.760Z,100198.04
2022-08-01T11:52:26.067Z,100200.40
2022-08-01T11:55:10.459Z,100201.91
2022-08-01T11:57:41.651Z,100201.55
2022-08-01T12:00:23.463Z,100200.09
2022-08-01T12:03:36.668Z,100196.60
2022-08-01T12:10:49.655Z,100194.82
2022-08-01T12:13:52.819Z,100190.52
2022-08-01T12:17:01.670Z,100184.49
2022-08-01T12:19:30.851Z,100179.73
2022-08-01T12:22:19.203Z,100178.73
2022-08-01T12:24:48.692Z,100176.94
2022-08-01T12:27:32.015Z,100173.04
2022-08-01T12:30:13.160Z,100172.66
2022-08-01T12:32:50.045Z,100173.18
2022-08-01T12:35:25.829Z,100170.09
2022-08-01T12:38:07.343Z,100167.60
2022-08-01T12:40:52.352Z,100168.89
2022-08-01T12:43:29.472Z,100168.91
2022-08-01T12:46:02.147Z,100163.59
2022-08-01T12:48:39.471Z,100164.70
2022-08-01T12:51:29.354Z,100163.25
2022-08-01T12:54:13.101Z,100164.16
2022-08-01T12:56:46.564Z,100163.67
2022-08-01T12:59:26.425Z,100165.95
2022-08-01T13:01:59.463Z,100163.20
2022-08-01T13:04:31.370Z,100162.17
2022-08-01T13:07:45.607Z,100159.67
2022-08-01T13:11:24.779Z,100161.89
2022-08-01T13:14:55.300Z,100161.55
2022-08-01T13:17:53.916Z,100165.01
2022-08-01T13:20:36.785Z,100163.70
2022-08-01T13:27:35.457Z,100162.21
2022-08-01T13:53:32.351Z,100154.01
2022-08-01T13:56:03.028Z,100154.29
2022-08-01T13:58:47.152Z,100154.42
2022-08-01T14:01:18.125Z,100156.45
2022-08-01T14:03:52.528Z,100159.11
2022-08-01T14:06:25.006Z,100163.54
2022-08-01T14:08:57.571Z,100165.84
2022-08-01T14:11:30.321Z,100166.13
2022-08-01T14:14:08.409Z,100161.38
2022-08-01T14:16:38.784Z,100158.11
2022-08-01T14:19:08.297Z,100158.70
2022-08-01T14:21:38.221Z,100160.34
2022-08-01T14:24:08.645Z,100157.47
2022-08-01T14:26:38.232Z,100162.67
2022-08-01T14:29:16.744Z,100166.75
2022-08-01T14:38:48.339Z,100211.10
2022-08-01T14:42:58.616Z,100227.02
2022-08-01T14:46:11.191Z,100242.62
2022-08-01T14:48:46.258Z,100248.95
2022-08-01T14:51:18.441Z,100244.85
2022-08-01T14:53:50.978Z,100243.27
2022-08-01T14:56:22.387Z,100245.23
2022-08-01T14:59:02.909Z,100248.41
2022-08-01T15:01:32.819Z,100246.15
2022-08-01T15:04:02.221Z,100244.86
2022-08-01T15:06:34.076Z,100237.83
2022-08-01T15:09:03.319Z,100234.77
2022-08-01T15:11:38.452Z,100232.19
2022-08-01T15:14:26.338Z,100229.67
2022-08-01T15:17:10.875Z,100229.02
2022-08-01T15:22:54.246Z,100232.06
2022-08-01T15:29:21.157Z,100226.21
2022-08-01T15:31:53.619Z,100227.50
2022-08-01T15:38:20.943Z,100233.81
2022-08-01T15:41:14.541Z,100232.16
2022-08-01T15:43:58.654Z,100230.13
2022-08-01T15:46:57.738Z,100227.40
2022-08-01T15:49:46.659Z,100232.86
2022-08-01T15:52:23.178Z,100230.45
2022-08-01T15:55:00.189Z,100230.63
2022-08-01T15:57:29.759Z,100231.98
2022-08-01T15:59:58.945Z,100228.71
2022-08-01T16:02:44.166Z,100227.86
2022-08-01T16:05:53.328Z,100223.71
2022-08-01T16:08:44.382Z,100217.80
2022-08-01T16:11:26.786Z,100218.17
2022-08-01T16:14:15.851Z,100215.75
2022-08-01T16:16:45.296Z,100222.20
2022-08-01T16:19:33.453Z,100220.94
2022-08-01T16:22:09.155Z,100218.87
2022-08-01T16:24:57.777Z,100219.74
2022-08-01T16:27:47.952Z,100225.46
2022-08-01T16:30:36.767Z,100222.79
2022-08-01T16:33:47.673Z,100225.33
2022-08-01T16:36:15.921Z,100224.34
2022-08-01T16:39:08.947Z,100227.95
2022-08-01T16:41:55.302Z,100217.88
2022-08-01T16:44:33.428Z,100208.98
2022-08-01T16:47:05.440Z,100206.94
2022-08-01T16:49:37.218Z,100209.71
2022-08-01T16:52:10.625Z,100205.34
2022-08-01T16:54:51.552Z,100209.09
2022-08-01T16:57:28.855Z,100212.29
2022-08-01T17:00:00.690Z,100216.44
2022-08-01T17:02:34.360Z,100223.91
2022-08-01T17:05:12.891Z,100231.14
2022-08-01T17:07:42.237Z,100234.20
2022-08-01T17:10:12.133Z,100232.52
2022-08-01T17:12:43.610Z,100234.64
2022-08-01T17:15:15.685Z,100240.83
2022-08-01T17:17:54.950Z,100249.95
2022-08-01T17:20:38.585Z,100253.09
2022-08-01T17:24:19.649Z,100253.32
2022-08-01T17:31:23.006Z,100245.52
2022-08-01T17:34:39.721Z,100259.21
2022-08-01T17:37:58.623Z,100280.02
2022-08-01T17:41:24.112Z,100271.42
2022-08-01T17:44:18.528Z,100270.70
2022-08-01T17:47:50.345Z,100279.40
2022-08-01T17:51:31.968Z,100270.95
2022-08-01T17:54:46.619Z,100266.05
2022-08-01T17:57:49.270Z,100268.05
2022-08-01T18:01:07.820Z,100272.59
2022-08-01T18:04:12.989Z,100283.63
2022-08-01T18:07:16.319Z,100284.56
2022-08-01T18:10:56.275Z,100280.77
2022-08-01T18:13:20.526Z,100278.01
2022-08-01T18:16:14.406Z,100272.27
2022-08-01T18:18:45.960Z,100272.73
2022-08-01T18:21:27.797Z,100274.95
2022-08-01T18:24:52.018Z,100273.40
2022-08-01T18:28:29.990Z,100273.76
2022-08-01T18:31:08.902Z,100275.65
2022-08-01T18:35:14.082Z,100278.02
2022-08-01T18:44:32.425Z,100299.30
2022-08-01T18:47:01.409Z,100304.45
2022-08-01T18:49:34.713Z,100308.08
2022-08-01T18:52:08.278Z,100311.64
2022-08-01T18:54:45.456Z,100313.67
2022-08-01T19:02:32.596Z,100319.39
2022-08-01T19:05:01.884Z,100324.34
2022-08-01T19:08:04.366Z,100333.15
2022-08-01T19:10:19.595Z,100334.91
2022-08-01T19:12:48.374Z,100338.52
2022-08-01T19:15:20.296Z,100342.20
2022-08-01T19:17:49.048Z,100346.86
2022-08-01T19:20:18.023Z,100350.05
2022-08-01T19:22:46.842Z,100347.45
2022-08-01T19:25:15.945Z,100348.58
2022-08-01T19:27:48.615Z,100349.01
2022-08-01T19:30:19.305Z,100349.35
2022-08-01T19:32:49.128Z,100349.97
2022-08-01T19:35:18.130Z,100354.47
2022-08-01T19:37:49.062Z,100355.59
2022-08-01T19:40:26.761Z,100357.14
2022-08-01T19:42:57.553Z,100360.20
2022-08-01T19:45:30.030Z,100360.29
2022-08-01T19:47:59.404Z,100362.46
2022-08-01T19:50:29.618Z,100360.10
2022-08-01T19:53:02.666Z,100355.90
2022-08-01T19:55:37.586Z,100356.70
2022-08-01T20:00:57.732Z,100355.83
2022-08-01T20:03:28.407Z,100359.05
2022-08-01T20:05:57.679Z,100359.37
2022-08-01T20:08:27.352Z,100358.60
2022-08-01T20:11:00.887Z,100358.63
2022-08-01T20:13:36.718Z,100359.68
2022-08-01T20:16:09.136Z,100358.55
2022-08-01T20:18:40.240Z,100361.27
2022-08-01T20:21:14.706Z,100364.17
2022-08-01T20:23:46.558Z,100367.23
2022-08-01T20:26:17.931Z,100371.43
2022-08-01T20:28:48.153Z,100375.15
2022-08-01T20:31:18.158Z,100377.64
2022-08-01T20:33:49.704Z,100379.09
2022-08-01T20:36:24.798Z,100383.59
2022-08-01T20:38:57.599Z,100384.20
2022-08-01T20:41:28.182Z,100387.05
2022-08-01T20:43:59.582Z,100391.98
2022-08-01T20:46:29.858Z,100394.50
2022-08-01T20:48:59.140Z,100396.06
2022-08-01T20:51:29.588Z,100391.91
2022-08-01T20:53:58.862Z,100393.27
2022-08-01T20:56:46.896Z,100391.40
2022-08-01T20:59:57.544Z,100391.34
2022-08-01T21:02:51.664Z,100392.67
2022-08-01T21:05:58.702Z,100395.40
2022-08-01T21:08:45.524Z,100399.41
2022-08-01T21:11:21.318Z,100402.66
2022-08-01T21:13:51.385Z,100408.11
2022-08-01T21:16:30.298Z,100413.46
2022-08-01T21:19:20.018Z,100412.67
2022-08-01T21:22:14.883Z,100415.05
2022-08-01T21:24:58.985Z,100417.45
2022-08-01T21:27:33.035Z,100421.51
2022-08-01T21:30:09.275Z,100418.45
2022-08-01T21:32:40.685Z,100418.77
2022-08-01T21:35:16.793Z,100420.45
2022-08-01T21:37:52.305Z,100426.39
2022-08-01T21:40:24.373Z,100423.63
2022-08-01T21:42:54.777Z,100423.45
2022-08-01T21:45:27.273Z,100423.09
2022-08-01T21:47:58.439Z,100423.65
2022-08-01T21:50:29.076Z,100425.95
2022-08-01T21:53:15.121Z,100426.40
2022-08-01T21:56:14.601Z,100427.56
2022-08-01T21:59:52.302Z,100424.10
2022-08-01T22:02:39.327Z,100427.27
2022-08-01T22:05:13.777Z,100428.36
2022-08-01T22:07:48.570Z,100427.79
2022-08-01T22:10:19.786Z,100424.56
2022-08-01T22:12:48.680Z,100424.08
2022-08-01T22:15:20.299Z,100427.45
2022-08-01T22:17:53.391Z,100426.73
2022-08-01T22:20:25.119Z,100428.13
2022-08-01T22:22:57.598Z,100428.54
2022-08-01T22:25:29.430Z,100429.52
2022-08-01T22:28:03.221Z,100431.30
2022-08-01T22:30:42.648Z,100428.02
2022-08-01T22:33:16.575Z,100430.45
2022-08-01T22:35:50.984Z,100432.44
2022-08-01T22:38:25.411Z,100432.46
2022-08-01T22:41:09.730Z,100432.04
2022-08-01T22:44:02.942Z,100434.37
2022-08-01T22:46:55.960Z,100435.80
2022-08-01T22:50:03.677Z,100434.38
2022-08-01T22:52:44.717Z,100434.39
2022-08-01T22:55:20.591Z,100439.55
2022-08-01T22:58:03.512Z,100441.04
2022-08-01T23:00:35.738Z,100439.18
2022-08-01T23:03:16.197Z,100440.52
2022-08-01T23:06:12.277Z,100437.61
2022-08-01T23:08:41.549Z,100438.13
2022-08-01T23:11:11.461Z,100437.89
2022-08-01T23:13:41.241Z,100439.86
2022-08-01T23:16:14.422Z,100441.75
2022-08-01T23:18:46.704Z,100443.23
2022-08-01T23:21:16.973Z,100440.23
2022-08-01T23:23:47.277Z,100439.42
2022-08-01T23:26:17.135Z,100441.05
2022-08-01T23:28:46.428Z,100441.79
2022-08-01T23:31:16.648Z,100438.54
2022-08-01T23:33:45.429Z,100440.85
2022-08-01T23:36:17.522Z,100443.73
2022-08-01T23:38:46.401Z,100441.89
2022-08-01T23:41:15.147Z,100445.27
2022-08-01T23:43:51.962Z,100446.05
2022-08-01T23:46:21.416Z,100444.38
2022-08-01T23:48:50.196Z,100448.11
2022-08-01T23:51:24.779Z,100448.44
2022-08-01T23:53:54.055Z,100452.73
2022-08-01T23:56:25.368Z,100453.31
2022-08-01T23:58:54.469Z,100455.11
